createdAt,value
2023-04-17T00:00:53.534Z,98.46
2023-04-17T00:01:53.519Z,98.49
2023-04-17T00:02:53.616Z,98.55
2023-04-17T00:03:53.720Z,98.57
2023-04-17T00:04:53.635Z,98.56
2023-04-17T00:05:52.839Z,98.58
2023-04-17T00:06:53.453Z,98.62
2023-04-17T00:07:54.191Z,98.64
2023-04-17T00:08:53.419Z,98.65
2023-04-17T00:09:53.403Z,98.63
2023-04-17T00:11:04.098Z,98.63
2023-04-17T00:11:54.375Z,98.62
2023-04-17T00:12:53.127Z,98.66
2023-04-17T00:13:53.344Z,98.64
2023-04-17T00:14:53.572Z,98.59
2023-04-17T00:15:53.637Z,98.48
2023-04-17T00:16:53.387Z,98.26
2023-04-17T00:17:53.373Z,97.96
2023-04-17T00:18:53.271Z,97.77
2023-04-17T00:19:53.260Z,97.65
2023-04-17T00:20:53.276Z,97.55
2023-04-17T00:21:53.241Z,97.51
2023-04-17T00:22:53.461Z,97.49
2023-04-17T00:23:53.246Z,97.54
2023-04-17T00:24:53.201Z,97.62
2023-04-17T00:25:53.193Z,97.67
2023-04-17T00:26:53.201Z,97.70
2023-04-17T00:27:53.128Z,97.77
2023-04-17T00:28:53.141Z,97.79
2023-04-17T00:29:53.133Z,97.82
2023-04-17T00:30:53.353Z,97.92
2023-04-17T00:31:53.175Z,98.02
2023-04-17T00:32:53.369Z,98.10
2023-04-17T00:33:53.083Z,98.23
2023-04-17T00:34:55.568Z,98.45
2023-04-17T00:35:53.109Z,98.63
2023-04-17T00:36:53.034Z,98.75
2023-04-17T00:37:53.004Z,98.80
2023-04-17T00:38:53.245Z,98.90
2023-04-17T00:39:52.989Z,98.91
2023-04-17T00:40:52.977Z,98.76
2023-04-17T00:41:53.021Z,98.57
2023-04-17T00:42:52.954Z,98.37
2023-04-17T00:43:53.652Z,98.22
2023-04-17T00:44:52.982Z,98.13
2023-04-17T00:45:52.983Z,98.09
2023-04-17T00:46:53.113Z,98.04
2023-04-17T00:47:52.950Z,98.06
2023-04-17T00:48:52.913Z,98.10
2023-04-17T00:49:52.876Z,98.17
2023-04-17T00:50:52.857Z,98.19
2023-04-17T00:51:52.849Z,98.13
2023-04-17T00:52:52.136Z,98.07
2023-04-17T00:53:52.329Z,98.02
2023-04-17T00:54:52.792Z,98.01
2023-04-17T00:55:52.341Z,98.08
2023-04-17T00:56:52.780Z,98.15
2023-04-17T00:57:52.787Z,98.15
2023-04-17T00:58:52.745Z,98.17
2023-04-17T00:59:52.730Z,98.14
2023-04-17T01:00:53.468Z,98.14
2023-04-17T01:01:52.077Z,98.09
2023-04-17T01:02:52.813Z,97.99
2023-04-17T01:03:52.786Z,97.94
2023-04-17T01:04:52.676Z,97.78
2023-04-17T01:05:52.646Z,97.60
2023-04-17T01:06:52.626Z,97.51
2023-04-17T01:07:52.632Z,97.38
2023-04-17T01:08:52.591Z,97.15
2023-04-17T01:09:51.872Z,96.99
2023-04-17T01:10:52.574Z,96.90
2023-04-17T01:11:53.288Z,96.81
2023-04-17T01:12:52.559Z,96.80
2023-04-17T01:13:52.514Z,96.83
2023-04-17T01:14:52.583Z,96.89
2023-04-17T01:15:52.502Z,96.87
2023-04-17T01:16:52.573Z,96.78
2023-04-17T01:17:51.973Z,96.85
2023-04-17T01:18:52.446Z,96.88
2023-04-17T01:19:52.470Z,96.79
2023-04-17T01:20:52.468Z,96.76
2023-04-17T01:21:52.426Z,96.76
2023-04-17T01:22:52.417Z,96.75
2023-04-17T01:23:52.366Z,96.83
2023-04-17T01:24:52.384Z,96.88
2023-04-17T01:25:52.445Z,96.89
2023-04-17T01:26:52.362Z,96.91
2023-04-17T01:27:52.420Z,96.95
2023-04-17T01:28:52.316Z,97.01
2023-04-17T01:29:52.312Z,97.14
2023-04-17T01:30:52.366Z,97.22
2023-04-17T01:31:52.290Z,97.29
2023-04-17T01:32:52.350Z,97.33
2023-04-17T01:33:51.555Z,97.36
2023-04-17T01:34:52.477Z,97.39
2023-04-17T01:35:52.257Z,97.41
2023-04-17T01:36:52.257Z,97.33
2023-04-17T01:37:52.286Z,97.37
2023-04-17T01:38:52.182Z,97.32
2023-04-17T01:39:52.196Z,97.25
2023-04-17T01:40:51.572Z,97.22
2023-04-17T01:41:51.413Z,97.18
2023-04-17T01:42:52.142Z,97.09
2023-04-17T01:43:52.140Z,97.05
2023-04-17T01:44:52.125Z,97.02
2023-04-17T01:45:52.133Z,96.97
2023-04-17T01:46:52.142Z,96.93
2023-04-17T01:47:52.159Z,96.98
2023-04-17T01:48:52.732Z,97.01
2023-04-17T01:49:52.707Z,97.00
2023-04-17T01:50:52.251Z,97.00
2023-04-17T01:51:52.040Z,96.97
2023-04-17T01:52:52.004Z,96.87
2023-04-17T01:53:52.010Z,96.81
2023-04-17T01:54:51.994Z,96.72
2023-04-17T01:55:51.971Z,96.66
2023-04-17T01:56:52.684Z,96.73
2023-04-17T01:57:51.493Z,96.84
2023-04-17T01:58:51.907Z,96.89
2023-04-17T01:59:51.916Z,96.94
2023-04-17T02:00:51.940Z,97.02
2023-04-17T02:01:51.935Z,97.07
2023-04-17T02:02:52.000Z,97.08
2023-04-17T02:03:51.911Z,97.17
2023-04-17T02:04:51.859Z,97.26
2023-04-17T02:05:51.560Z,97.34
2023-04-17T02:06:51.893Z,97.42
2023-04-17T02:07:51.577Z,97.48
2023-04-17T02:08:51.760Z,97.52
2023-04-17T02:09:51.786Z,97.51
2023-04-17T02:10:51.775Z,97.39
2023-04-17T02:11:51.828Z,97.30
2023-04-17T02:12:51.739Z,97.27
2023-04-17T02:13:51.617Z,97.20
2023-04-17T02:14:51.706Z,97.09
2023-04-17T02:15:51.731Z,97.05
2023-04-17T02:16:51.701Z,97.05
2023-04-17T02:17:51.705Z,97.03
2023-04-17T02:18:52.327Z,97.08
2023-04-17T02:19:51.677Z,97.10
2023-04-17T02:20:51.650Z,97.14
2023-04-17T02:21:50.875Z,97.23
2023-04-17T02:22:51.595Z,97.27
2023-04-17T02:23:52.330Z,97.33
2023-04-17T02:24:51.580Z,97.38
2023-04-17T02:25:52.272Z,97.41
2023-04-17T02:26:51.551Z,97.45
2023-04-17T02:27:51.540Z,97.47
2023-04-17T02:28:51.159Z,97.44
2023-04-17T02:29:51.225Z,97.42
2023-04-17T02:30:51.524Z,97.42
2023-04-17T02:31:52.209Z,97.40
2023-04-17T02:32:51.509Z,97.38
2023-04-17T02:33:52.175Z,97.33
2023-04-17T02:34:51.452Z,97.18
2023-04-17T02:35:52.153Z,97.11
2023-04-17T02:36:51.401Z,97.04
2023-04-17T02:37:50.697Z,97.04
2023-04-17T02:38:51.357Z,96.99
2023-04-17T02:39:51.355Z,96.97
2023-04-17T02:40:51.354Z,96.94
2023-04-17T02:41:51.386Z,96.94
2023-04-17T02:42:51.319Z,96.99
2023-04-17T02:43:51.312Z,96.99
2023-04-17T02:44:51.314Z,96.99
2023-04-17T02:45:51.281Z,96.96
2023-04-17T02:46:51.356Z,96.92
2023-04-17T02:47:51.550Z,96.93
2023-04-17T02:48:51.240Z,96.98
2023-04-17T02:49:51.251Z,97.06
2023-04-17T02:50:51.229Z,97.08
2023-04-17T02:51:51.451Z,97.05
2023-04-17T02:52:51.202Z,96.99
2023-04-17T02:53:51.153Z,96.94
2023-04-17T02:54:51.276Z,96.94
2023-04-17T02:55:51.213Z,96.91
2023-04-17T02:56:51.184Z,96.80
2023-04-17T02:57:51.152Z,96.79
2023-04-17T02:58:51.109Z,96.92
2023-04-17T02:59:51.112Z,97.06
2023-04-17T03:00:51.120Z,97.20
2023-04-17T03:01:51.176Z,97.21
2023-04-17T03:02:51.152Z,97.21
2023-04-17T03:03:51.193Z,97.19
2023-04-17T03:04:51.071Z,97.19
2023-04-17T03:05:51.015Z,97.09
2023-04-17T03:06:51.012Z,97.00
2023-04-17T03:07:51.039Z,97.03
2023-04-17T03:08:50.967Z,97.10
2023-04-17T03:09:50.981Z,97.13
2023-04-17T03:10:50.961Z,97.14
2023-04-17T03:11:50.949Z,97.03
2023-04-17T03:12:50.924Z,96.80
2023-04-17T03:13:50.954Z,96.73
2023-04-17T03:14:50.882Z,96.65
2023-04-17T03:15:50.434Z,96.53
2023-04-17T03:16:50.950Z,96.41
2023-04-17T03:17:50.536Z,96.28
2023-04-17T03:18:50.844Z,96.27
2023-04-17T03:19:50.827Z,96.31
2023-04-17T03:20:50.815Z,96.25
2023-04-17T03:21:50.808Z,96.27
2023-04-17T03:22:50.789Z,96.28
2023-04-17T03:23:50.774Z,96.18
2023-04-17T03:24:50.767Z,96.14
2023-04-17T03:25:50.047Z,95.97
2023-04-17T03:26:50.727Z,95.77
2023-04-17T03:27:50.716Z,95.76
2023-04-17T03:28:50.696Z,95.74
2023-04-17T03:29:50.693Z,95.56
2023-04-17T03:30:51.392Z,95.50
2023-04-17T03:31:50.718Z,95.21
2023-04-17T03:32:51.384Z,95.29
2023-04-17T03:33:50.271Z,95.43
2023-04-17T03:34:50.602Z,95.50
2023-04-17T03:35:50.616Z,95.38
2023-04-17T03:36:50.617Z,95.37
2023-04-17T03:37:50.616Z,95.45
2023-04-17T03:38:50.568Z,95.46
2023-04-17T03:39:50.528Z,95.49
2023-04-17T03:40:50.539Z,95.44
2023-04-17T03:41:51.270Z,95.33
2023-04-17T03:42:50.543Z,95.21
2023-04-17T03:43:50.515Z,95.08
2023-04-17T03:44:50.529Z,94.88
2023-04-17T03:45:51.226Z,94.62
2023-04-17T03:46:50.457Z,94.42
2023-04-17T03:47:51.186Z,94.29
2023-04-17T03:48:50.407Z,94.06
2023-04-17T03:49:51.129Z,94.05
2023-04-17T03:50:50.405Z,94.01
2023-04-17T03:51:50.419Z,93.80
2023-04-17T03:52:51.101Z,93.66
2023-04-17T03:53:50.345Z,93.57
2023-04-17T03:54:50.372Z,93.54
2023-04-17T03:55:50.363Z,93.42
2023-04-17T03:56:50.320Z,93.40
2023-04-17T03:57:50.511Z,93.37
2023-04-17T03:58:50.314Z,93.27
2023-04-17T03:59:50.282Z,93.31
2023-04-17T04:00:50.297Z,93.14
2023-04-17T04:01:50.276Z,93.12
2023-04-17T04:02:50.413Z,93.27
2023-04-17T04:03:50.369Z,93.25
2023-04-17T04:04:50.454Z,93.26
2023-04-17T04:05:50.248Z,93.09
2023-04-17T04:06:50.191Z,93.07
2023-04-17T04:07:50.199Z,93.11
2023-04-17T04:08:50.162Z,93.13
2023-04-17T04:09:50.135Z,93.23
2023-04-17T04:10:50.134Z,93.25
2023-04-17T04:11:50.115Z,93.26
2023-04-17T04:12:50.120Z,93.08
2023-04-17T04:13:50.097Z,93.02
2023-04-17T04:14:50.046Z,93.00
2023-04-17T04:15:50.203Z,92.99
2023-04-17T04:16:50.073Z,93.07
2023-04-17T04:17:50.149Z,93.13
2023-04-17T04:18:50.036Z,93.20
2023-04-17T04:19:49.997Z,93.23
2023-04-17T04:20:50.714Z,93.21
2023-04-17T04:21:49.969Z,93.21
2023-04-17T04:22:49.956Z,93.32
2023-04-17T04:23:49.972Z,93.32
2023-04-17T04:24:49.930Z,93.40
2023-04-17T04:25:49.721Z,93.57
2023-04-17T04:26:49.915Z,93.77
2023-04-17T04:27:49.675Z,93.88
2023-04-17T04:28:49.876Z,93.96
2023-04-17T04:29:49.689Z,93.96
2023-04-17T04:30:49.853Z,93.96
2023-04-17T04:31:50.553Z,93.95
2023-04-17T04:32:49.819Z,93.95
2023-04-17T04:33:49.813Z,94.24
2023-04-17T04:34:49.773Z,94.32
2023-04-17T04:35:49.668Z,94.25
2023-04-17T04:36:49.680Z,94.38
2023-04-17T04:37:49.770Z,94.64
2023-04-17T04:38:49.748Z,94.86
2023-04-17T04:39:49.715Z,95.13
2023-04-17T04:40:49.736Z,95.21
2023-04-17T04:41:49.671Z,95.07
2023-04-17T04:42:49.772Z,95.14
2023-04-17T04:43:49.681Z,95.05
2023-04-17T04:44:49.669Z,95.18
2023-04-17T04:45:50.375Z,95.46
2023-04-17T04:46:50.389Z,95.81
2023-04-17T04:47:50.409Z,96.02
2023-04-17T04:48:50.340Z,96.07
2023-04-17T04:49:50.309Z,96.16
2023-04-17T04:50:49.652Z,96.49
2023-04-17T04:51:50.270Z,96.59
2023-04-17T04:52:49.568Z,96.82
2023-04-17T04:53:50.258Z,96.79
2023-04-17T04:54:50.269Z,96.70
2023-04-17T04:55:50.303Z,96.45
2023-04-17T04:56:49.495Z,96.44
2023-04-17T04:57:50.218Z,96.75
2023-04-17T04:58:50.230Z,96.99
2023-04-17T04:59:50.193Z,97.11
2023-04-17T05:00:49.518Z,97.32
2023-04-17T05:01:49.523Z,97.49
2023-04-17T05:02:49.512Z,97.85
2023-04-17T05:03:49.592Z,98.20
2023-04-17T05:04:49.424Z,98.38
2023-04-17T05:05:49.379Z,98.50
2023-04-17T05:06:49.450Z,98.50
2023-04-17T05:07:49.360Z,98.49
2023-04-17T05:08:48.608Z,98.68
2023-04-17T05:09:49.603Z,98.83
2023-04-17T05:10:49.978Z,98.93
2023-04-17T05:11:49.301Z,99.07
2023-04-17T05:12:49.326Z,99.23
2023-04-17T05:13:49.278Z,99.30
2023-04-17T05:14:49.249Z,99.37
2023-04-17T05:15:49.308Z,99.50
2023-04-17T05:16:50.045Z,99.70
2023-04-17T05:17:49.238Z,99.89
2023-04-17T05:18:49.223Z,100.00
2023-04-17T05:19:49.191Z,100.00
2023-04-17T05:20:49.179Z,100.00
2023-04-17T05:21:49.162Z,100.00
2023-04-17T05:22:49.151Z,100.00
2023-04-17T05:23:49.159Z,100.00
2023-04-17T05:24:49.839Z,100.00
2023-04-17T05:25:49.120Z,100.00
2023-04-17T05:26:49.132Z,100.00
2023-04-17T05:27:49.837Z,100.00
2023-04-17T05:28:49.096Z,100.00
2023-04-17T05:29:49.038Z,100.00
2023-04-17T05:30:49.059Z,100.00
2023-04-17T05:31:49.107Z,100.00
2023-04-17T05:32:49.713Z,100.00
2023-04-17T05:33:49.024Z,100.00
2023-04-17T05:34:48.554Z,100.00
2023-04-17T05:35:49.017Z,100.00
2023-04-17T05:36:48.979Z,100.00
2023-04-17T05:37:48.574Z,100.00
2023-04-17T05:38:48.943Z,100.00
2023-04-17T05:39:48.566Z,100.00
2023-04-17T05:40:48.565Z,100.00
2023-04-17T05:41:48.915Z,100.00
2023-04-17T05:42:48.886Z,100.00
2023-04-17T05:43:48.870Z,100.00
2023-04-17T05:44:48.821Z,100.00
2023-04-17T05:45:48.907Z,100.00
2023-04-17T05:46:48.864Z,100.00
2023-04-17T05:47:48.153Z,100.00
2023-04-17T05:48:48.180Z,100.00
2023-04-17T05:49:48.774Z,100.00
2023-04-17T05:50:48.770Z,100.00
2023-04-17T05:51:48.792Z,100.00
2023-04-17T05:52:48.798Z,100.00
2023-04-17T05:53:48.308Z,100.00
2023-04-17T05:54:48.759Z,100.00
2023-04-17T05:55:48.361Z,100.00
2023-04-17T05:56:48.384Z,100.00
2023-04-17T05:57:48.718Z,100.00
2023-04-17T05:58:48.460Z,100.00
2023-04-17T05:59:48.651Z,100.00
2023-04-17T06:00:48.612Z,100.00
2023-04-17T06:01:48.638Z,100.00
2023-04-17T06:02:48.787Z,100.00
2023-04-17T06:03:48.881Z,100.00
2023-04-17T06:04:49.531Z,100.00
2023-04-17T06:05:49.410Z,100.00
2023-04-17T06:06:49.278Z,100.00
2023-04-17T06:07:49.287Z,100.00
2023-04-17T06:08:49.256Z,100.00
2023-04-17T06:09:49.241Z,100.00
2023-04-17T06:10:48.522Z,100.00
2023-04-17T06:11:48.521Z,100.00
2023-04-17T06:12:48.491Z,100.00
2023-04-17T06:13:48.695Z,100.00
2023-04-17T06:14:48.466Z,100.00
2023-04-17T06:15:48.445Z,100.00
2023-04-17T06:16:48.479Z,100.00
2023-04-17T06:17:48.440Z,100.00
2023-04-17T06:18:48.411Z,100.00
2023-04-17T06:19:48.412Z,100.00
2023-04-17T06:20:47.765Z,100.00
2023-04-17T06:21:48.586Z,99.99
2023-04-17T06:22:48.387Z,99.86
2023-04-17T06:23:48.340Z,99.70
2023-04-17T06:24:48.351Z,99.64
2023-04-17T06:25:48.279Z,99.63
2023-04-17T06:26:48.289Z,99.51
2023-04-17T06:27:48.278Z,99.02
2023-04-17T06:28:47.782Z,98.81
2023-04-17T06:29:48.485Z,98.77
2023-04-17T06:30:48.241Z,98.71
2023-04-17T06:31:48.271Z,98.22
2023-04-17T06:32:48.225Z,97.97
2023-04-17T06:33:48.204Z,97.90
2023-04-17T06:34:59.223Z,97.90
2023-04-17T06:35:49.159Z,97.78
2023-04-17T06:36:48.195Z,97.78
2023-04-17T06:37:48.355Z,97.74
2023-04-17T06:38:48.139Z,97.60
2023-04-17T06:39:48.334Z,97.46
2023-04-17T06:40:48.095Z,97.42
2023-04-17T06:41:48.087Z,97.42
2023-04-17T06:42:48.076Z,97.20
2023-04-17T06:43:48.063Z,97.17
2023-04-17T06:44:47.757Z,96.78
2023-04-17T06:45:48.762Z,96.53
2023-04-17T06:46:47.837Z,96.37
2023-04-17T06:47:48.066Z,96.25
2023-04-17T06:48:47.847Z,96.09
2023-04-17T06:49:47.993Z,95.90
2023-04-17T06:50:47.945Z,95.45
2023-04-17T06:51:47.788Z,94.99
2023-04-17T06:52:47.795Z,94.47
2023-04-17T06:53:47.940Z,93.90
2023-04-17T06:54:47.909Z,93.68
2023-04-17T06:55:47.886Z,93.72
2023-04-17T06:56:47.895Z,93.12
2023-04-17T06:57:47.871Z,93.07
2023-04-17T06:58:47.882Z,92.81
2023-04-17T06:59:47.828Z,92.93
2023-04-17T07:00:47.801Z,92.93
2023-04-17T07:01:47.828Z,92.18
2023-04-17T07:02:47.932Z,92.07
2023-04-17T07:03:48.676Z,91.82
2023-04-17T07:04:48.515Z,91.32
2023-04-17T07:05:47.771Z,91.43
2023-04-17T07:06:48.457Z,91.65
2023-04-17T07:07:48.449Z,91.80
2023-04-17T07:08:47.760Z,91.18
2023-04-17T07:09:48.420Z,91.11
2023-04-17T07:10:48.416Z,90.55
2023-04-17T07:11:48.402Z,90.49
2023-04-17T07:12:48.370Z,91.11
2023-04-17T07:13:48.359Z,91.34
2023-04-17T07:14:48.369Z,91.31
2023-04-17T07:15:48.407Z,91.53
2023-04-17T07:16:47.731Z,91.52
2023-04-17T07:17:48.346Z,90.96
2023-04-17T07:18:48.306Z,91.30
2023-04-17T07:19:48.297Z,91.20
2023-04-17T07:20:47.534Z,91.21
2023-04-17T07:21:47.534Z,91.56
2023-04-17T07:22:47.570Z,91.00
2023-04-17T07:23:47.549Z,91.27
2023-04-17T07:24:47.507Z,91.09
2023-04-17T07:25:47.452Z,91.85
2023-04-17T07:26:47.492Z,91.85
2023-04-17T07:27:47.473Z,92.06
2023-04-17T07:28:47.455Z,92.00
2023-04-17T07:29:47.660Z,91.49
2023-04-17T07:30:47.396Z,91.53
2023-04-17T07:31:47.434Z,91.91
2023-04-17T07:32:48.117Z,91.81
2023-04-17T07:33:47.372Z,91.67
2023-04-17T07:34:48.025Z,91.29
2023-04-17T07:35:47.325Z,90.89
2023-04-17T07:36:47.319Z,90.29
2023-04-17T07:37:47.316Z,90.05
2023-04-17T07:38:47.343Z,90.01
2023-04-17T07:39:47.290Z,89.19
2023-04-17T07:40:47.247Z,89.19
2023-04-17T07:41:47.266Z,89.61
2023-04-17T07:42:47.898Z,88.79
2023-04-17T07:43:47.253Z,88.74
2023-04-17T07:44:47.882Z,88.29
2023-04-17T07:45:47.185Z,87.84
2023-04-17T07:46:47.939Z,87.61
2023-04-17T07:47:47.187Z,87.29
2023-04-17T07:48:47.164Z,87.44
2023-04-17T07:49:47.169Z,87.47
2023-04-17T07:50:47.817Z,87.25
2023-04-17T07:51:47.126Z,87.30
2023-04-17T07:52:47.133Z,87.91
2023-04-17T07:53:47.092Z,88.00
2023-04-17T07:54:47.088Z,87.17
2023-04-17T07:55:47.061Z,87.16
2023-04-17T07:56:46.660Z,87.08
2023-04-17T07:57:47.040Z,87.02
2023-04-17T07:58:47.037Z,86.94
2023-04-17T07:59:47.006Z,86.91
2023-04-17T08:00:46.972Z,86.90
2023-04-17T08:01:47.012Z,86.85
2023-04-17T08:02:46.795Z,87.36
2023-04-17T08:03:47.149Z,86.48
2023-04-17T08:04:46.898Z,85.40
2023-04-17T08:05:46.896Z,83.59
2023-04-17T08:06:46.921Z,83.04
2023-04-17T08:07:46.901Z,81.07
2023-04-17T08:08:47.630Z,78.93
2023-04-17T08:09:47.550Z,76.69
2023-04-17T08:10:46.878Z,74.53
2023-04-17T08:11:56.381Z,75.71
2023-04-17T08:12:47.838Z,75.25
2023-04-17T08:13:46.825Z,76.45
2023-04-17T08:14:46.814Z,78.34
2023-04-17T08:15:46.783Z,77.47
2023-04-17T08:16:46.792Z,77.28
2023-04-17T08:17:46.847Z,76.98
2023-04-17T08:18:46.747Z,77.56
2023-04-17T08:19:46.744Z,74.63
2023-04-17T08:20:47.405Z,73.54
2023-04-17T08:21:46.705Z,70.10
2023-04-17T08:22:46.694Z,67.73
2023-04-17T08:23:46.689Z,67.32
2023-04-17T08:24:46.668Z,67.01
2023-04-17T08:25:47.386Z,66.83
2023-04-17T08:26:47.358Z,67.05
2023-04-17T08:27:46.632Z,65.36
2023-04-17T08:28:46.621Z,67.15
2023-04-17T08:29:46.620Z,68.99
2023-04-17T08:30:46.576Z,70.54
2023-04-17T08:31:46.567Z,71.85
2023-04-17T08:32:46.631Z,71.75
2023-04-17T08:33:46.539Z,69.89
2023-04-17T08:34:46.523Z,69.42
2023-04-17T08:35:46.620Z,69.53
2023-04-17T08:36:46.525Z,68.46
2023-04-17T08:37:46.495Z,66.93
2023-04-17T08:38:46.701Z,67.70
2023-04-17T08:39:46.687Z,69.70
2023-04-17T08:40:46.509Z,71.12
2023-04-17T08:41:46.649Z,72.03
2023-04-17T08:42:46.440Z,73.33
2023-04-17T08:43:46.398Z,74.39
2023-04-17T08:44:46.433Z,76.10
2023-04-17T08:45:46.443Z,75.82
2023-04-17T08:46:47.050Z,76.97
2023-04-17T08:47:46.407Z,76.69
2023-04-17T08:48:46.392Z,77.81
2023-04-17T08:49:46.349Z,78.35
2023-04-17T08:50:46.312Z,78.82
2023-04-17T08:51:46.284Z,79.30
2023-04-17T08:52:47.007Z,80.21
2023-04-17T08:53:46.269Z,80.26
2023-04-17T08:54:47.465Z,80.86
2023-04-17T08:55:46.470Z,81.88
2023-04-17T08:56:46.200Z,81.87
2023-04-17T08:57:46.207Z,82.11
2023-04-17T08:58:46.210Z,82.47
2023-04-17T08:59:46.180Z,82.67
2023-04-17T09:00:46.166Z,83.15
2023-04-17T09:01:46.194Z,83.15
2023-04-17T09:02:46.192Z,83.68
2023-04-17T09:03:46.316Z,83.58
2023-04-17T09:04:46.181Z,84.15
2023-04-17T09:05:46.389Z,84.46
2023-04-17T09:06:46.062Z,84.96
2023-04-17T09:07:46.091Z,84.77
2023-04-17T09:08:46.279Z,84.64
2023-04-17T09:09:46.053Z,84.76
2023-04-17T09:10:46.774Z,84.85
2023-04-17T09:11:46.011Z,84.97
2023-04-17T09:12:46.009Z,84.79
2023-04-17T09:13:46.003Z,84.86
2023-04-17T09:14:45.884Z,84.64
2023-04-17T09:15:45.936Z,84.58
2023-04-17T09:16:45.939Z,84.10
2023-04-17T09:17:45.976Z,84.48
2023-04-17T09:18:45.932Z,83.75
2023-04-17T09:19:45.936Z,83.10
2023-04-17T09:20:46.617Z,83.07
2023-04-17T09:21:46.616Z,82.73
2023-04-17T09:22:46.614Z,83.26
2023-04-17T09:23:46.578Z,82.95
2023-04-17T09:24:46.565Z,82.51
2023-04-17T09:25:46.555Z,82.63
2023-04-17T09:26:46.572Z,82.67
2023-04-17T09:27:46.524Z,82.02
2023-04-17T09:28:46.504Z,81.65
2023-04-17T09:29:46.514Z,82.35
2023-04-17T09:30:45.769Z,81.86
2023-04-17T09:31:45.810Z,80.68
2023-04-17T09:32:46.551Z,79.18
2023-04-17T09:33:46.473Z,77.97
2023-04-17T09:34:46.476Z,78.50
2023-04-17T09:35:46.367Z,78.53
2023-04-17T09:36:46.422Z,77.61
2023-04-17T09:37:45.710Z,77.09
2023-04-17T09:38:45.661Z,77.42
2023-04-17T09:39:45.645Z,77.22
2023-04-17T09:40:45.861Z,77.39
2023-04-17T09:41:45.591Z,77.62
2023-04-17T09:42:45.610Z,77.06
2023-04-17T09:43:45.596Z,76.52
2023-04-17T09:44:45.575Z,77.15
2023-04-17T09:45:45.563Z,76.41
2023-04-17T09:46:46.309Z,76.42
2023-04-17T09:47:45.605Z,76.35
2023-04-17T09:48:45.764Z,76.09
2023-04-17T09:49:45.518Z,75.87
2023-04-17T09:50:45.723Z,75.72
2023-04-17T09:51:45.457Z,75.30
2023-04-17T09:52:45.493Z,75.80
2023-04-17T09:53:45.463Z,76.30
2023-04-17T09:54:45.444Z,76.96
2023-04-17T09:55:45.433Z,76.46
2023-04-17T09:56:46.074Z,76.89
2023-04-17T09:57:45.429Z,77.00
2023-04-17T09:58:45.394Z,77.09
2023-04-17T09:59:45.409Z,77.91
2023-04-17T10:00:45.457Z,77.90
2023-04-17T10:01:45.363Z,78.40
2023-04-17T10:02:45.412Z,78.64
2023-04-17T10:03:45.454Z,78.79
2023-04-17T10:04:45.559Z,78.94
2023-04-17T10:05:45.306Z,79.50
2023-04-17T10:06:45.247Z,79.69
2023-04-17T10:07:45.304Z,79.73
2023-04-17T10:08:45.270Z,79.75
2023-04-17T10:09:45.277Z,79.77
2023-04-17T10:10:45.227Z,80.00
2023-04-17T10:11:45.194Z,79.09
2023-04-17T10:12:45.461Z,79.36
2023-04-17T10:13:45.401Z,79.43
2023-04-17T10:14:45.160Z,79.50
2023-04-17T10:15:45.147Z,79.05
2023-04-17T10:16:45.338Z,79.47
2023-04-17T10:17:45.189Z,79.09
2023-04-17T10:18:44.771Z,79.02
2023-04-17T10:19:45.097Z,78.32
2023-04-17T10:20:45.134Z,78.61
2023-04-17T10:21:45.049Z,78.23
2023-04-17T10:22:45.063Z,78.14
2023-04-17T10:23:45.044Z,78.00
2023-04-17T10:24:44.780Z,78.24
2023-04-17T10:25:44.774Z,78.31
2023-04-17T10:26:44.785Z,78.29
2023-04-17T10:27:44.789Z,78.28
2023-04-17T10:28:44.973Z,77.86
2023-04-17T10:29:44.964Z,77.57
2023-04-17T10:30:44.953Z,77.26
2023-04-17T10:31:44.982Z,77.57
2023-04-17T10:32:44.962Z,77.39
2023-04-17T10:33:44.907Z,77.48
2023-04-17T10:34:44.898Z,77.41
2023-04-17T10:35:44.886Z,77.44
2023-04-17T10:36:45.094Z,77.63
2023-04-17T10:37:44.823Z,76.90
2023-04-17T10:38:45.067Z,76.68
2023-04-17T10:39:44.819Z,76.59
2023-04-17T10:40:45.031Z,77.21
2023-04-17T10:41:44.585Z,77.19
2023-04-17T10:42:44.768Z,77.21
2023-04-17T10:43:44.809Z,76.71
2023-04-17T10:44:44.769Z,76.85
2023-04-17T10:45:44.806Z,76.30
2023-04-17T10:46:44.721Z,76.99
2023-04-17T10:47:44.771Z,76.74
2023-04-17T10:48:45.371Z,77.18
2023-04-17T10:49:44.786Z,77.15
2023-04-17T10:50:44.681Z,76.62
2023-04-17T10:51:45.365Z,76.78
2023-04-17T10:52:45.030Z,76.72
2023-04-17T10:53:44.632Z,76.69
2023-04-17T10:54:44.830Z,76.64
2023-04-17T10:55:44.600Z,77.03
2023-04-17T10:56:43.953Z,76.61
2023-04-17T10:57:44.552Z,76.30
2023-04-17T10:58:44.565Z,76.29
2023-04-17T10:59:44.544Z,76.22
2023-04-17T11:00:44.530Z,75.67
2023-04-17T11:01:44.588Z,75.59
2023-04-17T11:02:45.328Z,75.46
2023-04-17T11:03:44.571Z,75.19
2023-04-17T11:04:44.546Z,74.88
2023-04-17T11:05:44.476Z,75.09
2023-04-17T11:06:44.456Z,74.93
2023-04-17T11:07:43.988Z,74.58
2023-04-17T11:08:44.423Z,74.67
2023-04-17T11:09:44.433Z,74.48
2023-04-17T11:10:44.433Z,74.08
2023-04-17T11:11:45.210Z,73.71
2023-04-17T11:12:44.362Z,73.33
2023-04-17T11:13:44.350Z,73.38
2023-04-17T11:14:44.344Z,73.11
2023-04-17T11:15:44.339Z,73.37
2023-04-17T11:16:44.566Z,72.67
2023-04-17T11:17:44.326Z,73.19
2023-04-17T11:18:44.287Z,72.87
2023-04-17T11:19:46.391Z,72.69
2023-04-17T11:20:44.299Z,73.13
2023-04-17T11:21:43.929Z,73.47
2023-04-17T11:22:44.279Z,73.55
2023-04-17T11:23:44.628Z,73.10
2023-04-17T11:24:44.268Z,72.21
2023-04-17T11:25:44.382Z,71.50
2023-04-17T11:26:44.179Z,71.50
2023-04-17T11:27:44.837Z,71.07
2023-04-17T11:28:43.934Z,70.64
2023-04-17T11:29:44.137Z,70.57
2023-04-17T11:30:44.417Z,70.85
2023-04-17T11:31:44.107Z,69.50
2023-04-17T11:32:44.167Z,69.17
2023-04-17T11:33:44.050Z,68.76
2023-04-17T11:34:44.082Z,68.84
2023-04-17T11:35:44.752Z,68.02
2023-04-17T11:36:44.056Z,68.45
2023-04-17T11:37:44.029Z,68.60
2023-04-17T11:38:44.733Z,68.85
2023-04-17T11:39:44.034Z,68.87
2023-04-17T11:40:44.741Z,69.18
2023-04-17T11:41:44.689Z,69.00
2023-04-17T11:42:44.692Z,69.32
2023-04-17T11:43:44.701Z,69.66
2023-04-17T11:44:44.648Z,69.25
2023-04-17T11:45:44.667Z,69.29
2023-04-17T11:46:44.656Z,69.69
2023-04-17T11:47:43.978Z,70.32
2023-04-17T11:48:44.605Z,70.18
2023-04-17T11:49:44.592Z,70.34
2023-04-17T11:50:44.574Z,69.64
2023-04-17T11:51:44.571Z,69.70
2023-04-17T11:52:45.608Z,69.39
2023-04-17T11:53:44.524Z,69.49
2023-04-17T11:54:43.896Z,70.05
2023-04-17T11:55:43.080Z,70.37
2023-04-17T11:56:43.759Z,70.42
2023-04-17T11:57:44.429Z,70.47
2023-04-17T11:58:44.450Z,70.05
2023-04-17T11:59:43.724Z,70.37
2023-04-17T12:00:44.388Z,70.23
2023-04-17T12:01:43.702Z,70.32
2023-04-17T12:02:43.762Z,70.55
2023-04-17T12:03:45.452Z,70.83
2023-04-17T12:04:43.881Z,70.77
2023-04-17T12:05:43.714Z,71.68
2023-04-17T12:06:43.626Z,71.46
2023-04-17T12:07:43.626Z,71.55
2023-04-17T12:08:43.577Z,71.61
2023-04-17T12:09:44.302Z,71.71
2023-04-17T12:10:43.621Z,71.88
2023-04-17T12:11:43.560Z,72.50
2023-04-17T12:12:43.542Z,72.06
2023-04-17T12:13:43.517Z,71.82
2023-04-17T12:14:43.522Z,72.55
2023-04-17T12:15:43.544Z,72.59
2023-04-17T12:16:43.621Z,73.06
2023-04-17T12:17:43.518Z,73.50
2023-04-17T12:18:43.450Z,73.04
2023-04-17T12:19:43.456Z,73.68
2023-04-17T12:20:43.441Z,73.44
2023-04-17T12:21:44.095Z,73.47
2023-04-17T12:22:43.637Z,73.80
2023-04-17T12:23:43.394Z,74.27
2023-04-17T12:24:43.389Z,74.38
2023-04-17T12:25:43.361Z,74.53
2023-04-17T12:26:43.366Z,74.65
2023-04-17T12:27:42.889Z,75.01
2023-04-17T12:28:44.010Z,75.22
2023-04-17T12:29:44.816Z,75.00
2023-04-17T12:30:43.372Z,75.20
2023-04-17T12:31:43.968Z,75.44
2023-04-17T12:32:43.330Z,75.62
2023-04-17T12:33:43.241Z,75.81
2023-04-17T12:34:43.250Z,75.96
2023-04-17T12:35:42.907Z,75.51
2023-04-17T12:36:43.444Z,75.72
2023-04-17T12:37:43.209Z,76.10
2023-04-17T12:38:43.200Z,75.79
2023-04-17T12:39:43.160Z,75.97
2023-04-17T12:40:43.179Z,76.07
2023-04-17T12:41:42.900Z,75.97
2023-04-17T12:42:49.084Z,76.31
2023-04-17T12:43:44.062Z,76.63
2023-04-17T12:44:42.904Z,76.85
2023-04-17T12:45:43.161Z,76.29
2023-04-17T12:46:43.092Z,76.42
2023-04-17T12:47:43.378Z,75.98
2023-04-17T12:48:43.074Z,76.21
2023-04-17T12:49:43.022Z,76.30
2023-04-17T12:50:43.028Z,76.38